createdAt,value
2022-12-18T00:01:07.015Z,23.30
2022-12-18T00:03:37.961Z,20.73
2022-12-18T00:06:05.475Z,21.43
2022-12-18T00:08:32.624Z,19.90
2022-12-18T00:11:07.013Z,21.73
2022-12-18T00:13:34.420Z,21.00
2022-12-18T00:16:08.956Z,23.00
2022-12-18T00:18:36.403Z,23.73
2022-12-18T00:21:05.425Z,21.90
2022-12-18T00:23:34.395Z,20.23
2022-12-18T00:26:07.236Z,24.00
2022-12-18T00:28:34.318Z,22.63
2022-12-18T00:31:02.541Z,22.63
2022-12-18T00:33:29.729Z,19.43
2022-12-18T00:35:57.051Z,22.10
2022-12-18T00:38:24.122Z,19.87
2022-12-18T00:40:51.341Z,20.97
2022-12-18T00:43:18.440Z,19.90
2022-12-18T00:45:45.566Z,20.03
2022-12-18T00:48:13.049Z,19.80
2022-12-18T00:50:40.167Z,22.37
2022-12-18T00:53:07.350Z,20.10
2022-12-18T00:55:34.501Z,21.17
2022-12-18T00:58:01.598Z,21.43
2022-12-18T01:00:28.681Z,21.10
2022-12-18T01:02:55.896Z,19.90
2022-12-18T01:05:23.014Z,20.00
2022-12-18T01:07:50.210Z,20.27
2022-12-18T01:10:17.326Z,18.47
2022-12-18T01:12:44.397Z,19.50
2022-12-18T01:15:11.759Z,19.20
2022-12-18T01:17:38.833Z,22.23
2022-12-18T01:20:06.204Z,19.10
2022-12-18T01:22:34.460Z,19.47
2022-12-18T01:25:01.577Z,20.90
2022-12-18T01:27:28.658Z,21.50
2022-12-18T01:29:55.829Z,20.97
2022-12-18T01:32:23.051Z,20.30
2022-12-18T01:34:50.208Z,20.07
2022-12-18T01:37:17.364Z,18.17
2022-12-18T01:39:44.425Z,18.70
2022-12-18T01:42:15.017Z,18.13
2022-12-18T01:44:57.590Z,15.90
2022-12-18T01:47:24.682Z,18.57
2022-12-18T01:49:51.818Z,17.20
2022-12-18T01:52:18.985Z,16.73
2022-12-18T01:54:46.164Z,16.93
2022-12-18T01:57:13.253Z,18.00
2022-12-18T01:59:40.416Z,20.00
2022-12-18T02:02:08.384Z,17.83
2022-12-18T02:04:35.582Z,15.53
2022-12-18T02:07:08.773Z,19.20
2022-12-18T02:09:37.300Z,18.33
2022-12-18T02:12:10.589Z,18.80
2022-12-18T02:14:40.344Z,15.03
2022-12-18T02:17:13.346Z,16.80
2022-12-18T02:19:49.376Z,18.53
2022-12-18T02:22:16.561Z,18.73
2022-12-18T02:25:15.981Z,17.10
2022-12-18T02:27:43.258Z,19.13
2022-12-18T02:30:10.566Z,18.70
2022-12-18T02:32:39.836Z,17.93
2022-12-18T02:35:07.592Z,17.10
2022-12-18T02:37:35.145Z,20.77
2022-12-18T02:40:02.293Z,18.90
2022-12-18T02:42:29.403Z,19.60
2022-12-18T02:44:56.504Z,18.57
2022-12-18T02:47:24.432Z,20.37
2022-12-18T02:49:54.634Z,13.70
2022-12-18T02:52:40.329Z,19.20
2022-12-18T02:55:26.147Z,17.43
2022-12-18T02:57:55.653Z,19.97
2022-12-18T03:00:28.851Z,18.43
2022-12-18T03:02:56.057Z,17.10
2022-12-18T03:05:36.974Z,18.30
2022-12-18T03:08:04.044Z,18.27
2022-12-18T03:10:31.531Z,20.60
2022-12-18T03:13:09.846Z,20.60
2022-12-18T03:15:37.816Z,20.67
2022-12-18T03:18:06.549Z,16.37
2022-12-18T03:20:33.979Z,14.23
2022-12-18T03:23:25.564Z,14.30
2022-12-18T03:25:54.091Z,13.73
2022-12-18T03:28:21.874Z,15.13
2022-12-18T03:30:49.363Z,14.50
2022-12-18T03:33:27.505Z,15.33
2022-12-18T03:35:54.600Z,14.37
2022-12-18T03:38:21.672Z,13.77
2022-12-18T03:40:58.213Z,14.70
2022-12-18T03:43:28.418Z,12.10
2022-12-18T03:46:05.940Z,13.40
2022-12-18T03:48:46.359Z,15.60
2022-12-18T03:51:16.624Z,16.77
2022-12-18T03:53:46.728Z,15.60
2022-12-18T03:56:13.935Z,17.47
2022-12-18T03:58:41.004Z,15.43
2022-12-18T04:01:09.508Z,18.27
2022-12-18T04:03:36.663Z,18.23
2022-12-18T04:06:03.934Z,20.53
2022-12-18T04:08:32.292Z,16.50
2022-12-18T04:10:59.432Z,19.97
2022-12-18T04:13:26.994Z,16.63
2022-12-18T04:15:54.188Z,18.80
2022-12-18T04:18:21.348Z,18.70
2022-12-18T04:20:48.470Z,18.77
2022-12-18T04:23:15.563Z,18.43
2022-12-18T04:25:42.678Z,20.67
2022-12-18T04:28:09.866Z,21.27
2022-12-18T04:30:36.956Z,19.67
2022-12-18T04:33:04.083Z,18.17
2022-12-18T04:35:31.314Z,15.23
2022-12-18T04:37:58.405Z,13.17
2022-12-18T04:40:25.472Z,14.20
2022-12-18T04:42:52.712Z,16.27
2022-12-18T04:45:19.796Z,16.80
2022-12-18T04:47:46.890Z,16.57
2022-12-18T04:50:14.117Z,16.17
2022-12-18T04:52:41.225Z,17.70
2022-12-18T04:55:08.482Z,19.97
2022-12-18T04:57:35.630Z,20.60
2022-12-18T05:00:02.776Z,16.97
2022-12-18T05:02:29.969Z,19.07
2022-12-18T05:04:57.179Z,18.70
2022-12-18T05:07:24.327Z,16.50
2022-12-18T05:09:51.430Z,18.73
2022-12-18T05:12:18.552Z,16.13
2022-12-18T05:14:45.626Z,19.03
2022-12-18T05:17:12.714Z,17.00
2022-12-18T05:19:39.821Z,17.67
2022-12-18T05:22:06.926Z,15.77
2022-12-18T05:24:34.068Z,18.17
2022-12-18T05:27:01.186Z,17.93
2022-12-18T05:29:28.363Z,16.40
2022-12-18T05:31:55.536Z,18.70
2022-12-18T05:34:22.694Z,19.70
2022-12-18T05:36:49.818Z,16.60
2022-12-18T05:39:16.912Z,16.27
2022-12-18T05:41:44.016Z,16.20
2022-12-18T05:44:11.340Z,16.27
2022-12-18T05:46:38.557Z,16.63
2022-12-18T05:49:05.758Z,17.17
2022-12-18T05:51:32.841Z,16.60
2022-12-18T05:53:59.958Z,16.90
2022-12-18T05:56:27.053Z,13.90
2022-12-18T05:58:54.503Z,15.43
2022-12-18T06:01:22.780Z,16.47
2022-12-18T06:03:50.510Z,17.90
2022-12-18T06:06:21.843Z,14.80
2022-12-18T06:08:48.991Z,17.80
2022-12-18T06:11:18.399Z,14.60
2022-12-18T06:13:45.465Z,16.23
2022-12-18T06:16:12.647Z,16.00
2022-12-18T06:18:39.838Z,15.20
2022-12-18T06:21:07.214Z,14.83
2022-12-18T06:23:34.353Z,15.90
2022-12-18T06:26:05.068Z,17.47
2022-12-18T06:28:32.163Z,14.90
2022-12-18T06:30:59.227Z,16.03
2022-12-18T06:33:28.067Z,16.27
2022-12-18T06:36:00.792Z,15.03
2022-12-18T06:38:28.148Z,15.10
2022-12-18T06:40:55.310Z,15.90
2022-12-18T06:43:22.406Z,16.10
2022-12-18T06:45:53.621Z,16.47
2022-12-18T06:48:21.202Z,19.43
2022-12-18T06:50:48.413Z,18.20
2022-12-18T06:53:15.816Z,18.67
2022-12-18T06:55:42.896Z,16.90
2022-12-18T06:58:10.182Z,15.57
2022-12-18T07:00:38.524Z,16.20
2022-12-18T07:03:05.650Z,16.00
2022-12-18T07:05:32.748Z,15.10
2022-12-18T07:08:00.206Z,14.90
2022-12-18T07:10:27.369Z,16.97
2022-12-18T07:12:54.526Z,14.87
2022-12-18T07:15:21.623Z,16.00
2022-12-18T07:17:48.718Z,14.57
2022-12-18T07:20:15.868Z,15.23
2022-12-18T07:22:42.953Z,16.63
2022-12-18T07:25:10.174Z,16.10
2022-12-18T07:27:37.261Z,14.87
2022-12-18T07:30:04.777Z,15.10
2022-12-18T07:32:32.116Z,15.50
2022-12-18T07:34:59.194Z,16.70
2022-12-18T07:37:26.284Z,17.03
2022-12-18T07:39:53.385Z,15.57
2022-12-18T07:42:32.459Z,12.87
2022-12-18T07:45:02.693Z,14.40
2022-12-18T07:47:30.098Z,12.33
2022-12-18T07:49:58.004Z,14.53
2022-12-18T07:52:26.532Z,14.43
2022-12-18T07:54:53.707Z,14.93
2022-12-18T07:57:49.028Z,14.60
2022-12-18T08:00:08.936Z,15.37
2022-12-18T08:02:36.134Z,15.17
2022-12-18T08:05:03.638Z,15.00
2022-12-18T08:07:30.706Z,16.80
2022-12-18T08:09:58.278Z,14.80
2022-12-18T08:12:25.377Z,15.80
2022-12-18T08:14:52.468Z,15.43
2022-12-18T08:17:20.708Z,15.87
2022-12-18T08:19:47.822Z,14.80
2022-12-18T08:22:14.951Z,14.37
2022-12-18T08:24:42.127Z,15.90
2022-12-18T08:29:56.343Z,15.80
2022-12-18T08:32:23.522Z,17.90
2022-12-18T08:34:50.746Z,14.97
2022-12-18T08:37:17.821Z,18.20
2022-12-18T08:39:44.940Z,16.57
2022-12-18T08:42:30.951Z,17.60
2022-12-18T08:44:58.102Z,16.53
2022-12-18T08:47:26.927Z,18.17
2022-12-18T08:49:54.024Z,15.63
2022-12-18T08:52:21.205Z,16.57
2022-12-18T08:54:48.320Z,19.97
2022-12-18T08:57:15.437Z,17.40
2022-12-18T08:59:42.588Z,15.60
2022-12-18T09:02:11.206Z,14.63
2022-12-18T09:04:38.569Z,15.20
2022-12-18T09:07:05.735Z,17.20
2022-12-18T09:09:32.913Z,16.77
2022-12-18T09:12:00.127Z,16.07
2022-12-18T09:14:27.207Z,15.30
2022-12-18T09:16:54.352Z,13.53
2022-12-18T09:19:21.697Z,15.97
2022-12-18T09:21:49.089Z,11.10
2022-12-18T09:24:16.314Z,14.17
2022-12-18T09:26:45.019Z,14.43
2022-12-18T09:29:14.578Z,16.27
2022-12-18T09:31:42.242Z,14.97
2022-12-18T09:34:09.337Z,14.50
2022-12-18T09:36:36.509Z,16.77
2022-12-18T09:39:07.816Z,14.70
2022-12-18T09:41:38.800Z,16.30
2022-12-18T09:44:17.864Z,13.13
2022-12-18T09:47:05.286Z,15.70
2022-12-18T09:49:32.740Z,14.67
2022-12-18T09:52:02.099Z,17.13
2022-12-18T09:54:37.963Z,15.80
2022-12-18T09:57:05.396Z,15.73
2022-12-18T09:59:40.669Z,16.33
2022-12-18T10:02:15.402Z,19.10
2022-12-18T10:04:42.813Z,21.77
2022-12-18T10:07:36.098Z,18.20
2022-12-18T10:10:06.116Z,18.40
2022-12-18T10:12:45.750Z,15.40
2022-12-18T10:15:12.866Z,14.50
2022-12-18T10:17:58.590Z,12.87
2022-12-18T10:20:27.786Z,14.40
2022-12-18T10:23:13.790Z,13.33
2022-12-18T10:26:10.417Z,13.13
2022-12-18T10:28:40.225Z,15.87
2022-12-18T10:31:08.452Z,15.73
2022-12-18T10:33:35.678Z,16.23
2022-12-18T10:36:03.855Z,15.13
2022-12-18T10:38:32.698Z,14.47
2022-12-18T10:41:03.439Z,13.13
2022-12-18T10:43:40.185Z,17.47
2022-12-18T10:46:10.219Z,15.30
2022-12-18T10:48:49.519Z,15.13
2022-12-18T10:51:22.987Z,14.80
2022-12-18T10:53:53.493Z,15.67
2022-12-18T10:56:21.189Z,15.53
2022-12-18T10:58:56.807Z,15.83
2022-12-18T11:01:23.971Z,16.93
2022-12-18T11:04:01.843Z,15.70
2022-12-18T11:06:29.619Z,13.93
2022-12-18T11:09:00.849Z,15.23
2022-12-18T11:11:27.932Z,16.10
2022-12-18T11:14:08.291Z,14.73
2022-12-18T11:16:36.841Z,15.60
2022-12-18T11:19:24.495Z,14.00
2022-12-18T11:21:51.610Z,12.53
2022-12-18T11:24:21.182Z,17.00
2022-12-18T11:26:49.145Z,15.00
2022-12-18T11:29:18.333Z,16.30
2022-12-18T11:31:47.133Z,15.87
2022-12-18T11:34:31.255Z,15.00
2022-12-18T11:37:00.142Z,16.47
2022-12-18T11:39:47.504Z,16.83
2022-12-18T11:42:17.765Z,13.80
2022-12-18T11:44:44.881Z,15.57
2022-12-18T11:47:14.726Z,14.93
2022-12-18T11:49:43.466Z,15.57
2022-12-18T11:52:36.749Z,14.83
2022-12-18T11:55:09.615Z,16.17
2022-12-18T11:57:38.830Z,13.83
2022-12-18T12:00:16.957Z,15.70
2022-12-18T12:03:16.739Z,15.80
2022-12-18T12:05:51.166Z,15.10
2022-12-18T12:08:28.197Z,15.57
2022-12-18T12:10:55.263Z,15.70
2022-12-18T12:13:31.252Z,14.00
2022-12-18T12:16:13.522Z,16.47
2022-12-18T12:19:00.597Z,15.67
2022-12-18T12:21:30.530Z,13.63
2022-12-18T12:23:57.604Z,14.00
2022-12-18T12:26:43.153Z,13.03
2022-12-18T12:29:30.520Z,14.13
2022-12-18T12:32:09.235Z,12.57
2022-12-18T12:34:39.345Z,14.13
2022-12-18T12:37:06.423Z,15.63
2022-12-18T12:39:35.309Z,14.33
2022-12-18T12:42:21.249Z,16.10
2022-12-18T12:44:55.657Z,14.90
2022-12-18T12:47:33.924Z,15.20
2022-12-18T12:50:01.928Z,12.93
2022-12-18T12:52:30.050Z,16.07
2022-12-18T12:54:57.358Z,14.97
2022-12-18T12:57:43.900Z,14.60
2022-12-18T13:00:12.093Z,15.33
2022-12-18T13:02:58.539Z,16.87
2022-12-18T13:05:25.701Z,16.50
2022-12-18T13:07:55.860Z,15.20
2022-12-18T13:10:27.076Z,12.53
2022-12-18T13:12:58.228Z,13.03
2022-12-18T13:15:25.439Z,15.47
2022-12-18T13:18:06.596Z,15.10
2022-12-18T13:20:46.600Z,15.07
2022-12-18T13:23:27.325Z,12.67
2022-12-18T13:25:54.422Z,13.23
2022-12-18T13:28:40.274Z,14.33
2022-12-18T13:31:07.361Z,12.70
2022-12-18T13:34:02.186Z,13.67
2022-12-18T13:36:32.324Z,13.50
2022-12-18T13:39:23.269Z,13.47
2022-12-18T13:41:55.201Z,14.07
2022-12-18T13:44:22.256Z,17.10
2022-12-18T13:46:49.741Z,13.87
2022-12-18T13:49:23.044Z,15.43
2022-12-18T13:51:51.201Z,12.87
2022-12-18T13:54:21.097Z,13.63
2022-12-18T13:56:48.657Z,12.80
2022-12-18T13:59:17.107Z,12.30
2022-12-18T14:01:49.368Z,12.57
2022-12-18T14:04:20.591Z,13.70
2022-12-18T14:06:48.416Z,15.13
2022-12-18T14:09:21.337Z,13.20
2022-12-18T14:11:49.429Z,13.50
2022-12-18T14:14:17.538Z,14.73
2022-12-18T14:16:44.711Z,14.20
2022-12-18T14:19:16.682Z,14.90
2022-12-18T14:21:47.230Z,16.57
2022-12-18T14:24:18.284Z,15.30
2022-12-18T14:26:46.795Z,17.57
2022-12-18T14:29:21.565Z,17.13
2022-12-18T14:31:52.759Z,14.17
2022-12-18T14:34:20.522Z,15.90
2022-12-18T14:36:54.940Z,12.97
2022-12-18T14:39:22.086Z,14.47
2022-12-18T14:41:52.623Z,13.97
2022-12-18T14:44:19.763Z,14.67
2022-12-18T14:46:47.159Z,14.30
2022-12-18T14:49:28.717Z,14.33
2022-12-18T14:51:59.586Z,14.20
2022-12-18T14:54:27.041Z,13.40
2022-12-18T14:57:07.854Z,14.17
2022-12-18T14:59:35.008Z,14.10
2022-12-18T15:02:05.541Z,14.03
2022-12-18T15:04:44.997Z,13.80
2022-12-18T15:07:24.630Z,13.70
2022-12-18T15:10:10.236Z,13.60
2022-12-18T15:12:46.696Z,14.87
2022-12-18T15:15:32.863Z,12.47
2022-12-18T15:18:03.590Z,12.13
2022-12-18T15:20:34.335Z,14.33
2022-12-18T15:23:01.528Z,15.37
2022-12-18T15:25:37.665Z,14.60
2022-12-18T15:28:05.141Z,13.47
2022-12-18T15:30:32.458Z,13.87
2022-12-18T15:33:19.016Z,14.47
2022-12-18T15:35:47.310Z,19.50
2022-12-18T15:38:14.689Z,14.63
2022-12-18T15:40:41.856Z,16.97
2022-12-18T15:43:28.762Z,15.50
2022-12-18T15:45:56.012Z,13.00
2022-12-18T15:48:23.887Z,12.40
2022-12-18T15:50:54.458Z,14.37
2022-12-18T15:53:21.712Z,17.80
2022-12-18T15:56:07.612Z,14.60
2022-12-18T15:58:35.832Z,13.80
2022-12-18T16:01:03.014Z,15.70
2022-12-18T16:03:30.239Z,13.80
2022-12-18T16:05:59.315Z,14.37
2022-12-18T16:08:27.180Z,14.10
2022-12-18T16:10:54.293Z,15.00
2022-12-18T16:13:21.423Z,14.67
2022-12-18T16:15:48.572Z,16.17
2022-12-18T16:18:15.693Z,14.77
2022-12-18T16:20:42.820Z,12.60
2022-12-18T16:23:09.981Z,13.80
2022-12-18T16:25:37.083Z,16.20
2022-12-18T16:28:04.191Z,21.17
2022-12-18T16:30:34.883Z,20.80
2022-12-18T16:33:05.523Z,17.40
2022-12-18T16:35:34.741Z,17.03
2022-12-18T16:38:01.835Z,15.27
2022-12-18T16:40:29.018Z,15.47
2022-12-18T16:42:56.169Z,13.90
2022-12-18T16:45:23.271Z,15.33
2022-12-18T16:47:50.404Z,18.80
2022-12-18T16:50:17.517Z,14.20
2022-12-18T16:52:44.648Z,16.77
2022-12-18T16:55:11.802Z,16.53
2022-12-18T16:57:38.930Z,14.50
2022-12-18T17:00:06.436Z,14.80
2022-12-18T17:02:33.984Z,13.53
2022-12-18T17:05:01.271Z,14.70
2022-12-18T17:07:28.952Z,13.20
2022-12-18T17:09:56.126Z,14.50
2022-12-18T17:12:23.387Z,14.00
2022-12-18T17:14:50.673Z,15.37
2022-12-18T17:17:22.548Z,15.17
2022-12-18T17:19:50.606Z,14.70
2022-12-18T17:22:17.770Z,16.63
2022-12-18T17:24:44.879Z,16.10
2022-12-18T17:27:11.979Z,15.33
2022-12-18T17:29:43.883Z,19.73
2022-12-18T17:32:13.833Z,14.50
2022-12-18T17:34:41.017Z,14.83
2022-12-18T17:37:08.290Z,17.17
2022-12-18T17:39:35.380Z,15.50
2022-12-18T17:42:02.597Z,16.07
2022-12-18T17:44:29.738Z,16.77
2022-12-18T17:46:56.881Z,18.40
2022-12-18T17:49:23.981Z,15.87
2022-12-18T17:51:51.512Z,16.47
2022-12-18T17:54:18.761Z,15.70
2022-12-18T17:56:45.830Z,15.90
2022-12-18T17:59:13.572Z,16.20
2022-12-18T18:01:44.435Z,14.37
2022-12-18T18:04:12.401Z,16.70
2022-12-18T18:06:39.667Z,15.60
2022-12-18T18:09:07.275Z,16.33
2022-12-18T18:12:01.749Z,15.53
2022-12-18T18:14:28.844Z,15.03
2022-12-18T18:16:56.877Z,15.93
2022-12-18T18:19:29.822Z,16.37
2022-12-18T18:21:56.954Z,17.50
2022-12-18T18:24:24.255Z,15.80
2022-12-18T18:26:51.406Z,19.10
2022-12-18T18:29:19.455Z,21.30
2022-12-18T18:31:47.365Z,17.40
2022-12-18T18:34:24.577Z,16.43
2022-12-18T18:36:52.280Z,16.40
2022-12-18T18:39:19.572Z,18.70
2022-12-18T18:41:48.366Z,17.00
2022-12-18T18:44:16.026Z,22.43
2022-12-18T18:46:43.283Z,16.63
2022-12-18T18:49:10.462Z,16.77
2022-12-18T18:51:37.561Z,18.50
2022-12-18T18:54:04.921Z,18.07
2022-12-18T18:59:19.503Z,23.67
2022-12-18T19:01:50.813Z,20.87
2022-12-18T19:04:18.006Z,22.57
2022-12-18T19:06:47.736Z,19.47
2022-12-18T19:09:15.856Z,22.33
2022-12-18T19:12:01.707Z,19.90
2022-12-18T19:14:28.870Z,29.73
2022-12-18T19:16:56.039Z,23.60
2022-12-18T19:19:25.249Z,19.17
2022-12-18T19:21:52.392Z,20.50
2022-12-18T19:24:21.424Z,18.13
2022-12-18T19:26:49.639Z,20.90
2022-12-18T19:29:16.877Z,19.50
2022-12-18T19:31:44.955Z,17.23
2022-12-18T19:34:12.534Z,18.07
2022-12-18T19:36:40.082Z,18.43
2022-12-18T19:39:14.624Z,17.10
2022-12-18T19:41:42.793Z,16.83
2022-12-18T19:44:11.898Z,17.30
2022-12-18T19:46:41.799Z,15.43
2022-12-18T19:49:09.616Z,16.70
2022-12-18T19:51:37.258Z,17.17
2022-12-18T19:54:04.760Z,17.97
2022-12-18T19:56:32.820Z,18.17
2022-12-18T19:58:59.971Z,18.20
2022-12-18T20:01:27.433Z,17.60
2022-12-18T20:03:55.933Z,17.30
2022-12-18T20:06:28.048Z,20.17
2022-12-18T20:08:56.807Z,18.83
2022-12-18T20:11:27.510Z,17.67
2022-12-18T20:13:54.894Z,21.70
2022-12-18T20:16:22.082Z,21.87
2022-12-18T20:18:49.429Z,23.60
2022-12-18T20:21:17.004Z,25.30
2022-12-18T20:23:44.643Z,20.90
2022-12-18T20:26:12.157Z,19.70
2022-12-18T20:28:39.313Z,20.20
2022-12-18T20:31:13.463Z,17.40
2022-12-18T20:33:41.605Z,19.73
2022-12-18T20:36:09.811Z,19.93
2022-12-18T20:38:39.096Z,19.27
2022-12-18T20:41:10.954Z,20.03
2022-12-18T20:43:39.016Z,19.37
2022-12-18T20:46:07.310Z,18.03
2022-12-18T20:48:34.499Z,19.30
2022-12-18T20:51:03.884Z,21.60
2022-12-18T20:53:31.228Z,19.13
2022-12-18T20:55:58.395Z,20.87
2022-12-18T20:58:25.635Z,19.87
2022-12-18T21:01:02.894Z,23.93
2022-12-18T21:03:30.109Z,20.00
2022-12-18T21:05:57.259Z,19.90
2022-12-18T21:08:24.420Z,22.97
2022-12-18T21:10:51.557Z,21.67
2022-12-18T21:13:21.358Z,20.10
2022-12-18T21:15:48.430Z,22.50
2022-12-18T21:18:15.508Z,21.80
2022-12-18T21:20:42.831Z,22.30
2022-12-18T21:23:16.650Z,20.67
2022-12-18T21:25:44.379Z,22.37
2022-12-18T21:28:12.822Z,26.23
2022-12-18T21:30:40.160Z,22.37
2022-12-18T21:33:07.348Z,20.30
2022-12-18T21:35:34.451Z,22.03
2022-12-18T21:38:01.724Z,32.70
2022-12-18T21:40:31.477Z,27.07
2022-12-18T21:43:17.903Z,23.20
2022-12-18T21:45:45.154Z,19.70
2022-12-18T21:48:12.302Z,17.87
2022-12-18T21:50:39.373Z,18.57
2022-12-18T21:53:06.471Z,19.60
2022-12-18T21:55:33.802Z,19.97
2022-12-18T21:58:00.933Z,20.80
2022-12-18T22:00:28.005Z,18.70
2022-12-18T22:03:04.904Z,17.50
2022-12-18T22:05:42.174Z,17.20
2022-12-18T22:08:09.270Z,21.73
2022-12-18T22:10:36.537Z,21.67
2022-12-18T22:13:04.169Z,19.80
2022-12-18T22:15:31.301Z,21.90
2022-12-18T22:18:00.228Z,20.00
2022-12-18T22:20:27.698Z,20.73
2022-12-18T22:22:56.442Z,19.30
2022-12-18T22:25:23.522Z,19.83
2022-12-18T22:28:09.245Z,22.17
2022-12-18T22:30:36.314Z,17.93
2022-12-18T22:33:03.901Z,22.33
2022-12-18T22:35:31.037Z,18.33
2022-12-18T22:38:01.059Z,21.07
2022-12-18T22:40:28.416Z,20.10
2022-12-18T22:42:56.054Z,21.27
2022-12-18T22:45:23.260Z,21.07
2022-12-18T22:47:50.346Z,18.70
2022-12-18T22:50:17.503Z,19.53
2022-12-18T22:52:44.706Z,19.30
2022-12-18T22:55:11.876Z,18.83
2022-12-18T22:57:40.645Z,19.93
2022-12-18T23:00:11.455Z,22.17
2022-12-18T23:02:38.728Z,20.07
2022-12-18T23:05:07.695Z,23.07
2022-12-18T23:07:35.036Z,21.60
2022-12-18T23:10:02.193Z,20.80
2022-12-18T23:12:29.460Z,20.97
2022-12-18T23:14:56.748Z,19.97
2022-12-18T23:17:23.833Z,21.97
2022-12-18T23:19:51.070Z,20.67
2022-12-18T23:22:18.257Z,21.57
2022-12-18T23:24:45.434Z,22.20
2022-12-18T23:27:12.654Z,21.93
2022-12-18T23:29:40.420Z,18.37
2022-12-18T23:32:07.858Z,21.30
2022-12-18T23:34:34.990Z,19.73
2022-12-18T23:37:03.597Z,19.50
2022-12-18T23:39:30.786Z,19.47
2022-12-18T23:41:58.444Z,23.50
2022-12-18T23:44:25.895Z,21.53
2022-12-18T23:46:53.072Z,19.70
2022-12-18T23:49:20.315Z,19.70
2022-12-18T23:51:47.393Z,21.37
2022-12-18T23:54:14.544Z,21.20
2022-12-18T23:56:41.620Z,22.90
2022-12-18T23:59:08.825Z,20.30
